Time;durP1;ratioP1;P1;durP2;ratioP2;P2;SDS_P1;SDS_P2;PMS_P1;PMS_P2;Temp;Humidity;BMP_temperature;BMP_pressure;BME280_temperature;BME280_humidity;BME280_pressure;Samples;Min_cycle;Max_cycle;Signal;HPM_P1;HPM_P2
2023/08/15 00:00:31;;;;;;;6.82;6.15;;;;;;;;;;5062536;28;20221;-66
2023/08/15 00:02:58;;;;;;;7.80;5.82;;;;;;;;;;5062381;28;20207;-66
2023/08/15 00:05:24;;;;;;;7.75;6.32;;;;;;;;;;5062285;28;20204;-66
2023/08/15 00:07:50;;;;;;;7.45;6.70;;;;;;;;;;5062345;28;20203;-66
2023/08/15 00:10:17;;;;;;;8.40;6.20;;;;;;;;;;5062650;28;20192;-66
2023/08/15 00:12:44;;;;;;;7.00;6.50;;;;;;;;;;5062244;28;20203;-66
2023/08/15 00:15:11;;;;;;;7.85;5.70;;;;;;;;;;5062312;28;20374;-66
2023/08/15 00:17:37;;;;;;;10.77;7.50;;;;;;;;;;5062267;28;20196;-66
2023/08/15 00:20:04;;;;;;;9.38;7.05;;;;;;;;;;5061986;28;20247;-66
2023/08/15 00:22:30;;;;;;;7.38;6.65;;;;;;;;;;5062078;28;20281;-66
2023/08/15 00:24:56;;;;;;;12.02;6.80;;;;;;;;;;5062154;28;20377;-66
2023/08/15 00:27:23;;;;;;;8.93;7.28;;;;;;;;;;5062032;28;20224;-66
2023/08/15 00:29:50;;;;;;;7.35;6.70;;;;;;;;;;5061862;28;20193;-66
2023/08/15 00:32:16;;;;;;;10.55;7.18;;;;;;;;;;5061988;28;20419;-66
2023/08/15 00:34:43;;;;;;;6.80;6.20;;;;;;;;;;5062368;28;20201;-66
2023/08/15 00:37:09;;;;;;;10.95;6.70;;;;;;;;;;5061492;28;20276;-66
2023/08/15 00:39:35;;;;;;;11.82;7.03;;;;;;;;;;5061645;28;20419;-66
2023/08/15 00:42:02;;;;;;;7.68;6.65;;;;;;;;;;5061781;28;20263;-66
2023/08/15 00:44:28;;;;;;;11.43;7.50;;;;;;;;;;5061933;28;20196;-66
2023/08/15 00:46:55;;;;;;;7.50;6.80;;;;;;;;;;5061357;28;20211;-66
2023/08/15 00:49:22;;;;;;;11.07;6.75;;;;;;;;;;5061778;28;20212;-66
2023/08/15 00:51:48;;;;;;;6.75;6.10;;;;;;;;;;5061862;28;20201;-66
2023/08/15 00:54:15;;;;;;;9.65;6.38;;;;;;;;;;5053617;28;20228;-66
2023/08/15 00:56:41;;;;;;;11.93;7.53;;;;;;;;;;5061594;28;20406;-66
2023/08/15 00:59:08;;;;;;;6.82;6.30;;;;;;;;;;5062112;28;20200;-66
2023/08/15 01:01:34;;;;;;;6.68;5.90;;;;;;;;;;5062167;28;20220;-66
2023/08/15 01:04:02;;;;;;;9.90;6.72;;;;;;;;;;5061398;28;20273;-66
2023/08/15 01:06:28;;;;;;;8.48;6.32;;;;;;;;;;5061649;28;20211;-66
2023/08/15 01:08:55;;;;;;;7.97;6.32;;;;;;;;;;5061458;28;20200;-66
2023/08/15 01:11:21;;;;;;;6.70;5.85;;;;;;;;;;5061635;28;20195;-66
2023/08/15 01:13:51;;;;;;;9.70;6.07;;;;;;;;;;5061459;28;20203;-65
2023/08/15 01:16:20;;;;;;;10.60;7.05;;;;;;;;;;5053174;28;20415;-65
2023/08/15 01:18:51;;;;;;;6.90;6.30;;;;;;;;;;5061652;28;20501;-65
2023/08/15 01:21:22;;;;;;;10.43;6.25;;;;;;;;;;5053548;28;20213;-65
2023/08/15 01:23:50;;;;;;;6.60;6.10;;;;;;;;;;5061553;28;20242;-65
2023/08/15 01:26:16;;;;;;;6.57;5.88;;;;;;;;;;5061279;28;20203;-65
2023/08/15 01:28:42;;;;;;;6.60;6.05;;;;;;;;;;5061158;28;20227;-65
2023/08/15 01:31:13;;;;;;;8.40;6.45;;;;;;;;;;5061213;28;20196;-65
2023/08/15 01:33:43;;;;;;;11.65;7.35;;;;;;;;;;5061618;28;20201;-65
2023/08/15 01:36:11;;;;;;;13.70;6.97;;;;;;;;;;5060698;28;20209;-65
2023/08/15 01:38:40;;;;;;;9.80;6.30;;;;;;;;;;5061357;28;20264;-65
2023/08/15 01:41:09;;;;;;;8.75;6.38;;;;;;;;;;5061209;28;20251;-65
2023/08/15 01:43:37;;;;;;;7.25;6.65;;;;;;;;;;5061166;28;20283;-65
2023/08/15 01:46:04;;;;;;;8.48;6.70;;;;;;;;;;5060900;28;20196;-65
2023/08/15 01:48:30;;;;;;;9.07;6.43;;;;;;;;;;5061051;28;20208;-65
2023/08/15 01:50:57;;;;;;;9.05;6.45;;;;;;;;;;5063593;28;20200;-65
2023/08/15 01:53:23;;;;;;;8.55;6.72;;;;;;;;;;5065206;28;20504;-65
2023/08/15 01:55:49;;;;;;;7.85;7.05;;;;;;;;;;5064800;28;20381;-65
2023/08/15 01:58:17;;;;;;;7.18;6.57;;;;;;;;;;5064936;28;20197;-65
2023/08/15 02:00:43;;;;;;;9.93;6.28;;;;;;;;;;5064557;28;20213;-65
2023/08/15 02:03:10;;;;;;;8.10;6.50;;;;;;;;;;5064833;28;20508;-65
2023/08/15 02:05:37;;;;;;;6.47;6.05;;;;;;;;;;5064589;28;20224;-65
2023/08/15 02:08:03;;;;;;;9.38;6.72;;;;;;;;;;5064631;28;20212;-65
2023/08/15 02:10:30;;;;;;;8.55;5.47;;;;;;;;;;5064765;28;20193;-65
2023/08/15 02:12:56;;;;;;;6.00;5.60;;;;;;;;;;5064464;28;20222;-65
2023/08/15 02:15:24;;;;;;;7.10;6.15;;;;;;;;;;5064379;28;20231;-65
2023/08/15 02:17:50;;;;;;;6.00;5.50;;;;;;;;;;5064514;28;20188;-65
2023/08/15 02:20:16;;;;;;;6.53;6.03;;;;;;;;;;5064498;28;20566;-65
2023/08/15 02:22:43;;;;;;;6.55;6.00;;;;;;;;;;5064260;28;20204;-65
2023/08/15 02:25:09;;;;;;;6.85;5.88;;;;;;;;;;5064346;28;20208;-65
2023/08/15 02:27:35;;;;;;;9.57;5.78;;;;;;;;;;5064295;28;20535;-65
2023/08/15 02:30:03;;;;;;;7.88;5.88;;;;;;;;;;5064076;28;20228;-65
2023/08/15 02:32:30;;;;;;;6.80;5.57;;;;;;;;;;5064399;28;20205;-65
2023/08/15 02:34:57;;;;;;;7.10;5.85;;;;;;;;;;5064200;28;20418;-65
2023/08/15 02:37:23;;;;;;;6.00;5.50;;;;;;;;;;5064395;28;20211;-65
2023/08/15 02:39:49;;;;;;;8.25;5.72;;;;;;;;;;5064175;28;20204;-65
2023/08/15 02:42:15;;;;;;;5.68;5.20;;;;;;;;;;5063762;28;20213;-65
2023/08/15 02:44:43;;;;;;;6.82;5.50;;;;;;;;;;5064114;28;20200;-65
2023/08/15 02:47:09;;;;;;;6.10;5.68;;;;;;;;;;5063739;28;20570;-65
2023/08/15 02:49:38;;;;;;;5.60;5.30;;;;;;;;;;5064145;28;20209;-65
2023/08/15 02:52:05;;;;;;;6.28;5.68;;;;;;;;;;5063796;28;20547;-65
2023/08/15 02:54:32;;;;;;;5.60;5.20;;;;;;;;;;5063855;28;20200;-65
2023/08/15 02:56:58;;;;;;;9.18;5.20;;;;;;;;;;5063503;28;20505;-65
2023/08/15 02:59:24;;;;;;;6.57;5.97;;;;;;;;;;5064009;28;20223;-65
2023/08/15 03:01:51;;;;;;;8.73;5.93;;;;;;;;;;5063328;28;20205;-65
2023/08/15 03:04:17;;;;;;;5.68;5.30;;;;;;;;;;5063610;28;20205;-65
2023/08/15 03:06:45;;;;;;;11.00;6.30;;;;;;;;;;5063529;28;20307;-65
2023/08/15 03:09:11;;;;;;;5.40;4.93;;;;;;;;;;5063487;28;20209;-65
2023/08/15 03:11:37;;;;;;;8.98;5.22;;;;;;;;;;5063407;28;20199;-65
2023/08/15 03:14:04;;;;;;;6.90;6.20;;;;;;;;;;5063393;28;20466;-65
2023/08/15 03:16:30;;;;;;;9.38;6.05;;;;;;;;;;5063321;28;20254;-65
2023/08/15 03:18:56;;;;;;;7.03;5.85;;;;;;;;;;5063400;28;20193;-65
2023/08/15 03:21:22;;;;;;;6.65;5.55;;;;;;;;;;5063192;28;20219;-65
2023/08/15 03:23:50;;;;;;;10.73;6.13;;;;;;;;;;5063216;28;20196;-65
2023/08/15 03:26:16;;;;;;;9.20;6.40;;;;;;;;;;5063289;28;20208;-65
2023/08/15 03:28:43;;;;;;;12.65;6.53;;;;;;;;;;5063314;28;20227;-65
2023/08/15 03:31:10;;;;;;;7.05;6.35;;;;;;;;;;5063294;28;20539;-65
2023/08/15 03:33:36;;;;;;;10.50;6.32;;;;;;;;;;5063219;28;20203;-65
2023/08/15 03:36:03;;;;;;;7.05;6.38;;;;;;;;;;5062708;28;20223;-65
2023/08/15 03:38:29;;;;;;;7.32;5.80;;;;;;;;;;5062916;28;20197;-65
2023/08/15 03:41:03;;;;;;;6.82;6.22;;;;;;;;;;5063109;28;20225;-65
2023/08/15 03:43:30;;;;;;;10.75;6.00;;;;;;;;;;5055421;28;20354;-65
2023/08/15 03:45:56;;;;;;;5.95;5.60;;;;;;;;;;5062778;28;20201;-65
2023/08/15 03:48:22;;;;;;;8.55;6.15;;;;;;;;;;5062744;28;20205;-65
2023/08/15 03:50:49;;;;;;;11.65;6.20;;;;;;;;;;5062726;28;20197;-65
2023/08/15 03:53:15;;;;;;;6.88;6.28;;;;;;;;;;5062515;28;20277;-65
2023/08/15 03:55:41;;;;;;;6.97;6.38;;;;;;;;;;5062557;28;20196;-65
2023/08/15 03:58:09;;;;;;;13.00;6.57;;;;;;;;;;5062545;28;20215;-65
2023/08/15 04:00:35;;;;;;;5.93;5.53;;;;;;;;;;5062493;28;20455;-65
2023/08/15 04:03:02;;;;;;;7.65;5.90;;;;;;;;;;5062470;28;20262;-65
2023/08/15 04:05:28;;;;;;;7.28;5.63;;;;;;;;;;5062445;28;20209;-65
2023/08/15 04:07:54;;;;;;;10.02;5.97;;;;;;;;;;5062313;28;20207;-65
2023/08/15 04:10:20;;;;;;;8.93;6.40;;;;;;;;;;5062314;28;20284;-65
2023/08/15 04:12:56;;;;;;;6.55;5.95;;;;;;;;;;5061714;28;20197;-66
2023/08/15 04:15:23;;;;;;;6.57;5.97;;;;;;;;;;5062075;28;20204;-67
2023/08/15 04:17:49;;;;;;;9.00;6.95;;;;;;;;;;5062220;28;20197;-60
2023/08/15 04:20:16;;;;;;;7.25;6.30;;;;;;;;;;5062124;28;20201;-60
2023/08/15 04:22:42;;;;;;;10.05;6.88;;;;;;;;;;5062173;28;20224;-60
2023/08/15 04:25:09;;;;;;;6.80;6.18;;;;;;;;;;5062264;28;20579;-60
2023/08/15 04:27:35;;;;;;;6.90;6.18;;;;;;;;;;5061987;28;20270;-60
2023/08/15 04:30:02;;;;;;;8.05;6.35;;;;;;;;;;5062065;28;20201;-60
2023/08/15 04:32:30;;;;;;;9.25;7.43;;;;;;;;;;5062064;28;20193;-60
2023/08/15 04:34:56;;;;;;;7.00;6.40;;;;;;;;;;5062197;28;20209;-60
2023/08/15 04:37:23;;;;;;;10.25;6.65;;;;;;;;;;5061933;28;20205;-60
2023/08/15 04:39:50;;;;;;;8.68;6.95;;;;;;;;;;5061957;28;20504;-60
2023/08/15 04:42:16;;;;;;;8.52;7.18;;;;;;;;;;5061784;28;20220;-60
2023/08/15 04:44:43;;;;;;;8.60;7.25;;;;;;;;;;5061889;28;20200;-59
2023/08/15 04:47:09;;;;;;;9.55;6.80;;;;;;;;;;5061292;28;20204;-60
2023/08/15 04:49:37;;;;;;;9.90;7.07;;;;;;;;;;5062120;28;20224;-60
2023/08/15 04:52:03;;;;;;;9.73;7.63;;;;;;;;;;5061751;28;20431;-60
2023/08/15 04:54:29;;;;;;;11.35;8.05;;;;;;;;;;5062048;28;20208;-60
2023/08/15 04:56:56;;;;;;;10.20;7.50;;;;;;;;;;5061700;28;20208;-60
2023/08/15 04:59:22;;;;;;;11.50;7.60;;;;;;;;;;5061596;28;20201;-60
2023/08/15 05:01:48;;;;;;;8.02;7.22;;;;;;;;;;5061511;28;20393;-60
2023/08/15 05:04:14;;;;;;;11.10;7.47;;;;;;;;;;5061753;28;20227;-60
2023/08/15 05:06:42;;;;;;;8.30;7.28;;;;;;;;;;5061433;28;20196;-60
2023/08/15 05:09:08;;;;;;;7.60;7.00;;;;;;;;;;5061497;28;20201;-60
2023/08/15 05:11:35;;;;;;;8.02;7.18;;;;;;;;;;5061601;28;20497;-59
2023/08/15 05:14:06;;;;;;;9.60;7.35;;;;;;;;;;5061538;28;20207;-60
2023/08/15 05:16:32;;;;;;;10.57;7.38;;;;;;;;;;5053431;28;20247;-58
2023/08/15 05:18:58;;;;;;;8.15;7.45;;;;;;;;;;5061894;28;20204;-61
2023/08/15 05:21:25;;;;;;;10.07;9.05;;;;;;;;;;5061433;28;20217;-61
2023/08/15 05:23:53;;;;;;;12.35;8.73;;;;;;;;;;5062047;28;20227;-59
2023/08/15 05:26:19;;;;;;;8.23;7.47;;;;;;;;;;5065345;28;20571;-59
2023/08/15 05:28:46;;;;;;;10.00;8.45;;;;;;;;;;5065490;28;20217;-59
2023/08/15 05:31:12;;;;;;;12.73;9.38;;;;;;;;;;5065257;28;20209;-59
2023/08/15 05:33:38;;;;;;;9.88;8.75;;;;;;;;;;5065656;28;20205;-59
2023/08/15 05:36:05;;;;;;;11.18;8.43;;;;;;;;;;5065046;28;20283;-59
2023/08/15 05:38:31;;;;;;;9.35;8.45;;;;;;;;;;5057198;28;20205;-59
2023/08/15 05:40:59;;;;;;;14.63;8.50;;;;;;;;;;5065243;28;20224;-59
2023/08/15 05:43:25;;;;;;;8.75;7.70;;;;;;;;;;5065079;28;20349;-59
2023/08/15 05:45:51;;;;;;;8.65;7.95;;;;;;;;;;5064845;28;20197;-59
2023/08/15 05:48:18;;;;;;;11.07;8.10;;;;;;;;;;5065192;28;20204;-59
2023/08/15 05:50:44;;;;;;;9.57;7.40;;;;;;;;;;5065089;28;20197;-59
2023/08/15 05:53:10;;;;;;;8.93;8.18;;;;;;;;;;5065096;28;20203;-59
2023/08/15 05:55:37;;;;;;;8.88;7.97;;;;;;;;;;5064917;28;20401;-59
2023/08/15 05:58:05;;;;;;;8.18;7.50;;;;;;;;;;5065007;28;20373;-59
2023/08/15 06:00:31;;;;;;;8.20;7.18;;;;;;;;;;5064904;28;20211;-59
2023/08/15 06:02:57;;;;;;;7.63;7.00;;;;;;;;;;5064880;28;20588;-59
2023/08/15 06:05:23;;;;;;;9.45;7.85;;;;;;;;;;5064664;28;20407;-59
2023/08/15 06:07:50;;;;;;;8.73;7.80;;;;;;;;;;5064820;28;20205;-59
2023/08/15 06:10:16;;;;;;;10.00;7.50;;;;;;;;;;5064779;28;20205;-59
2023/08/15 06:12:42;;;;;;;7.95;7.18;;;;;;;;;;5064649;28;20391;-59
2023/08/15 06:15:10;;;;;;;11.52;7.15;;;;;;;;;;5064696;28;20201;-59
2023/08/15 06:17:37;;;;;;;8.13;7.30;;;;;;;;;;5064882;28;20236;-59
2023/08/15 06:20:03;;;;;;;7.78;7.03;;;;;;;;;;5064434;28;20200;-59
2023/08/15 06:22:30;;;;;;;7.95;7.30;;;;;;;;;;5064376;28;20544;-59
2023/08/15 06:24:56;;;;;;;11.60;7.50;;;;;;;;;;5064545;28;20205;-59
2023/08/15 06:27:22;;;;;;;9.52;7.50;;;;;;;;;;5063919;28;20450;-59
2023/08/15 06:29:49;;;;;;;8.43;6.88;;;;;;;;;;5064615;28;20215;-59
2023/08/15 06:32:28;;;;;;;7.03;6.40;;;;;;;;;;5064155;28;20204;-59
2023/08/15 06:34:55;;;;;;;11.00;7.38;;;;;;;;;;5064329;28;20209;-59
2023/08/15 06:37:21;;;;;;;10.63;7.20;;;;;;;;;;5063169;28;20211;-59
2023/08/15 06:39:47;;;;;;;7.40;6.70;;;;;;;;;;5064640;28;20197;-59
2023/08/15 06:42:13;;;;;;;8.32;7.00;;;;;;;;;;5064069;28;20366;-59
2023/08/15 06:44:42;;;;;;;8.20;7.40;;;;;;;;;;5064151;28;20205;-59
2023/08/15 06:47:08;;;;;;;7.18;6.60;;;;;;;;;;5063725;28;20211;-59
2023/08/15 06:49:35;;;;;;;9.80;6.80;;;;;;;;;;5063984;28;20530;-59
2023/08/15 06:52:03;;;;;;;9.57;7.28;;;;;;;;;;5063941;28;20390;-59
2023/08/15 06:54:29;;;;;;;9.60;7.53;;;;;;;;;;5063579;28;20201;-59
2023/08/15 06:56:55;;;;;;;11.68;7.97;;;;;;;;;;5063907;28;20201;-59
2023/08/15 06:59:23;;;;;;;48.35;25.33;;;;;;;;;;5064078;28;20487;-59
2023/08/15 07:01:50;;;;;;;160.25;82.63;;;;;;;;;;5063667;28;20246;-59
2023/08/15 07:04:16;;;;;;;55.47;32.60;;;;;;;;;;5063454;28;20216;-59
2023/08/15 07:06:43;;;;;;;27.33;15.68;;;;;;;;;;5063475;28;20200;-59
2023/08/15 07:09:11;;;;;;;11.80;8.63;;;;;;;;;;5063781;28;20504;-59
2023/08/15 07:11:37;;;;;;;9.70;7.40;;;;;;;;;;5055428;28;20197;-59
2023/08/15 07:14:03;;;;;;;10.00;6.97;;;;;;;;;;5063726;28;20408;-59
2023/08/15 07:16:30;;;;;;;8.70;7.72;;;;;;;;;;5063082;28;20206;-59
2023/08/15 07:18:56;;;;;;;8.23;7.35;;;;;;;;;;5063488;28;20201;-59
2023/08/15 07:21:23;;;;;;;8.00;6.47;;;;;;;;;;5063102;28;20208;-59
2023/08/15 07:23:50;;;;;;;7.43;6.75;;;;;;;;;;5063619;28;20243;-59
2023/08/15 07:26:16;;;;;;;10.30;7.47;;;;;;;;;;5063166;28;20200;-59
2023/08/15 07:28:45;;;;;;;9.02;6.60;;;;;;;;;;5063276;28;20536;-59
2023/08/15 07:31:11;;;;;;;6.68;6.18;;;;;;;;;;5063426;28;20255;-59
2023/08/15 07:33:37;;;;;;;80.43;15.02;;;;;;;;;;5062979;28;20199;-59
2023/08/15 07:36:04;;;;;;;74.00;19.42;;;;;;;;;;5062876;28;20207;-59
2023/08/15 07:38:30;;;;;;;20.75;7.88;;;;;;;;;;5063111;28;20204;-59
2023/08/15 07:40:57;;;;;;;14.40;7.75;;;;;;;;;;5062996;28;20216;-59
2023/08/15 07:43:24;;;;;;;9.75;6.88;;;;;;;;;;5062919;28;20253;-59
2023/08/15 07:45:50;;;;;;;18.98;7.07;;;;;;;;;;5062663;28;20393;-59
2023/08/15 07:48:16;;;;;;;10.50;6.57;;;;;;;;;;5062544;28;20218;-59
2023/08/15 07:50:42;;;;;;;9.85;6.88;;;;;;;;;;5062649;28;20226;-59
2023/08/15 07:53:09;;;;;;;8.50;7.05;;;;;;;;;;5063080;28;20314;-59
2023/08/15 07:55:37;;;;;;;10.45;7.05;;;;;;;;;;5062648;28;20380;-59
2023/08/15 07:58:04;;;;;;;8.68;6.88;;;;;;;;;;5062808;28;20207;-59
2023/08/15 08:00:31;;;;;;;10.23;6.32;;;;;;;;;;5062619;28;20454;-59
2023/08/15 08:02:59;;;;;;;6.68;6.07;;;;;;;;;;5062532;28;20228;-59
2023/08/15 08:05:25;;;;;;;8.00;6.20;;;;;;;;;;5062511;28;20228;-59
2023/08/15 08:07:52;;;;;;;7.47;6.20;;;;;;;;;;5062708;28;20510;-59
2023/08/15 08:10:18;;;;;;;6.75;6.15;;;;;;;;;;5062513;28;20207;-59
2023/08/15 08:12:45;;;;;;;9.63;6.28;;;;;;;;;;5062514;28;20527;-59
2023/08/15 08:15:13;;;;;;;8.45;6.20;;;;;;;;;;5062347;28;20207;-59
2023/08/15 08:17:39;;;;;;;8.98;5.90;;;;;;;;;;5053925;28;20268;-59
2023/08/15 08:20:08;;;;;;;12.23;6.28;;;;;;;;;;5062461;28;20516;-59
2023/08/15 08:22:34;;;;;;;6.63;6.05;;;;;;;;;;5061955;28;22166;-59
2023/08/15 08:25:06;;;;;;;7.45;5.72;;;;;;;;;;5062355;28;20211;-60
2023/08/15 08:27:32;;;;;;;12.02;6.05;;;;;;;;;;5061875;28;20227;-59
2023/08/15 08:29:58;;;;;;;7.95;6.05;;;;;;;;;;5062101;28;20215;-59
2023/08/15 08:32:26;;;;;;;7.30;5.97;;;;;;;;;;5061770;28;20361;-59
2023/08/15 08:34:52;;;;;;;7.85;6.05;;;;;;;;;;5062214;28;20523;-59
2023/08/15 08:37:18;;;;;;;11.23;6.07;;;;;;;;;;5061941;28;20377;-60
2023/08/15 08:39:45;;;;;;;6.70;6.10;;;;;;;;;;5062075;28;20200;-59
2023/08/15 08:42:11;;;;;;;8.55;6.32;;;;;;;;;;5062307;28;20283;-59
2023/08/15 08:44:37;;;;;;;10.27;6.28;;;;;;;;;;5061773;28;20196;-59
2023/08/15 08:47:04;;;;;;;6.95;6.30;;;;;;;;;;5061585;28;20222;-59
2023/08/15 08:49:32;;;;;;;9.07;6.10;;;;;;;;;;5061925;28;20380;-59
2023/08/15 08:52:00;;;;;;;8.73;6.30;;;;;;;;;;5062103;28;20272;-59
2023/08/15 08:54:26;;;;;;;9.30;6.13;;;;;;;;;;5062082;28;20390;-57
2023/08/15 08:56:54;;;;;;;6.43;5.82;;;;;;;;;;5061621;28;20263;-58
2023/08/15 08:59:21;;;;;;;5.85;5.45;;;;;;;;;;5061108;28;20207;-59
2023/08/15 09:01:48;;;;;;;8.80;6.40;;;;;;;;;;5061802;28;20328;-60
2023/08/15 09:04:14;;;;;;;7.82;5.70;;;;;;;;;;5061931;28;20414;-59
2023/08/15 09:06:42;;;;;;;9.00;5.85;;;;;;;;;;5061208;28;20282;-59
2023/08/15 09:09:09;;;;;;;5.95;5.38;;;;;;;;;;5061982;28;20200;-60
2023/08/15 09:11:36;;;;;;;6.88;5.82;;;;;;;;;;5061415;28;20197;-60
2023/08/15 09:14:02;;;;;;;6.25;5.47;;;;;;;;;;5061491;28;20196;-60
2023/08/15 09:16:29;;;;;;;6.10;5.50;;;;;;;;;;5061494;28;20513;-59
2023/08/15 09:18:55;;;;;;;6.47;5.43;;;;;;;;;;5061742;28;20394;-60
2023/08/15 09:21:23;;;;;;;5.70;5.20;;;;;;;;;;5061628;28;20275;-60
2023/08/15 09:23:52;;;;;;;8.02;5.10;;;;;;;;;;5061561;28;20283;-60
2023/08/15 09:26:18;;;;;;;6.53;5.47;;;;;;;;;;5061446;28;20396;-60
2023/08/15 09:28:45;;;;;;;9.55;5.40;;;;;;;;;;5053325;28;20228;-61
2023/08/15 09:31:12;;;;;;;8.02;5.38;;;;;;;;;;5061613;28;20246;-60
2023/08/15 09:33:39;;;;;;;13.73;5.25;;;;;;;;;;5061446;28;22072;-60
2023/08/15 09:36:05;;;;;;;9.25;5.60;;;;;;;;;;5061357;28;20200;-60
2023/08/15 09:38:32;;;;;;;8.85;5.20;;;;;;;;;;5061505;28;20215;-59
2023/08/15 09:41:00;;;;;;;12.38;4.60;;;;;;;;;;5061306;28;20531;-60
2023/08/15 09:43:26;;;;;;;12.32;4.00;;;;;;;;;;5061291;28;20216;-60
2023/08/15 09:45:53;;;;;;;5.07;2.80;;;;;;;;;;5061227;28;20217;-60
2023/08/15 09:48:20;;;;;;;4.35;3.17;;;;;;;;;;5061101;28;20227;-60
2023/08/15 09:50:48;;;;;;;4.85;2.70;;;;;;;;;;5061289;28;20212;-60
2023/08/15 09:53:15;;;;;;;5.72;2.60;;;;;;;;;;5061137;28;20203;-60
2023/08/15 09:55:42;;;;;;;7.95;2.63;;;;;;;;;;5060770;28;20196;-60
2023/08/15 09:58:09;;;;;;;6.70;2.40;;;;;;;;;;5060115;28;20223;-60
2023/08/15 10:00:36;;;;;;;4.65;2.45;;;;;;;;;;5061033;28;20197;-60
2023/08/15 10:03:06;;;;;;;6.43;2.20;;;;;;;;;;5060156;28;20444;-60
2023/08/15 10:05:33;;;;;;;5.65;2.33;;;;;;;;;;5060612;28;20209;-60
2023/08/15 10:08:00;;;;;;;5.30;2.05;;;;;;;;;;5061000;28;20204;-60
2023/08/15 10:10:27;;;;;;;3.50;2.15;;;;;;;;;;5060996;28;20392;-60
2023/08/15 10:12:55;;;;;;;6.15;2.17;;;;;;;;;;5064382;28;20496;-60
2023/08/15 10:15:23;;;;;;;5.50;2.45;;;;;;;;;;5064357;28;20262;-60
2023/08/15 10:17:50;;;;;;;9.77;2.35;;;;;;;;;;5064604;28;20203;-60
2023/08/15 10:20:17;;;;;;;7.18;2.00;;;;;;;;;;5064478;28;20200;-60
2023/08/15 10:22:43;;;;;;;3.15;2.05;;;;;;;;;;5064149;28;20213;-60
2023/08/15 10:25:33;;;;;;;6.00;2.17;;;;;;;;;;5064604;28;20205;-59
2023/08/15 10:28:00;;;;;;;6.40;2.50;;;;;;;;;;5058029;28;20338;-60
2023/08/15 10:30:33;;;;;;;7.53;2.03;;;;;;;;;;5064314;28;20401;-60
2023/08/15 10:32:59;;;;;;;11.80;2.35;;;;;;;;;;5064189;28;20196;-60
2023/08/15 10:35:26;;;;;;;2.58;1.80;;;;;;;;;;5064151;28;20390;-59
2023/08/15 10:37:52;;;;;;;7.88;2.10;;;;;;;;;;5064311;28;20204;-60
2023/08/15 10:40:20;;;;;;;3.53;2.13;;;;;;;;;;5064560;28;20207;-60
2023/08/15 10:43:06;;;;;;;2.28;2.08;;;;;;;;;;5063885;28;20221;-60
2023/08/15 10:45:35;;;;;;;4.68;2.35;;;;;;;;;;5063622;28;20512;-60
2023/08/15 10:48:02;;;;;;;2.20;2.03;;;;;;;;;;5063907;28;20212;-60
2023/08/15 10:50:28;;;;;;;3.92;2.10;;;;;;;;;;5063913;28;20479;-60
2023/08/15 10:52:57;;;;;;;3.40;2.10;;;;;;;;;;5063776;28;20211;-60
2023/08/15 10:55:25;;;;;;;6.63;2.50;;;;;;;;;;5063642;28;20197;-60
2023/08/15 10:57:52;;;;;;;7.90;2.60;;;;;;;;;;5063795;28;20196;-60
2023/08/15 11:00:18;;;;;;;4.13;2.53;;;;;;;;;;5063668;28;20206;-60
2023/08/15 11:02:46;;;;;;;3.63;2.30;;;;;;;;;;5063467;28;20242;-60
2023/08/15 11:05:12;;;;;;;4.72;2.50;;;;;;;;;;5063791;28;20222;-60
2023/08/15 11:07:41;;;;;;;5.80;2.40;;;;;;;;;;5063224;28;20200;-60
2023/08/15 11:10:08;;;;;;;8.27;2.92;;;;;;;;;;5063573;28;20208;-60
2023/08/15 11:12:34;;;;;;;5.55;2.30;;;;;;;;;;5063298;28;20201;-60
2023/08/15 11:15:01;;;;;;;6.75;2.30;;;;;;;;;;5063382;28;20200;-60
2023/08/15 11:17:27;;;;;;;2.97;2.20;;;;;;;;;;5063288;28;20200;-60
2023/08/15 11:19:55;;;;;;;7.18;2.35;;;;;;;;;;5063479;28;20527;-60
2023/08/15 11:22:21;;;;;;;5.35;2.55;;;;;;;;;;5063326;28;20201;-60
2023/08/15 11:24:50;;;;;;;3.20;2.25;;;;;;;;;;5063089;28;20222;-60
2023/08/15 11:27:16;;;;;;;5.55;2.30;;;;;;;;;;5062920;28;20397;-58
2023/08/15 11:29:43;;;;;;;6.22;2.30;;;;;;;;;;5062325;28;20201;-60
2023/08/15 11:32:09;;;;;;;4.13;2.45;;;;;;;;;;5056334;28;20416;-59
2023/08/15 11:34:36;;;;;;;2.22;1.75;;;;;;;;;;5057774;28;20224;-60
2023/08/15 11:37:04;;;;;;;4.88;2.15;;;;;;;;;;5057983;28;20212;-60
2023/08/15 11:39:31;;;;;;;3.13;1.70;;;;;;;;;;5058345;28;20276;-60
2023/08/15 11:41:57;;;;;;;2.83;1.60;;;;;;;;;;5058048;28;20526;-60
2023/08/15 11:44:23;;;;;;;5.75;1.95;;;;;;;;;;5058031;28;20510;-60
2023/08/15 11:46:49;;;;;;;3.30;1.98;;;;;;;;;;5057458;28;20214;-60
2023/08/15 11:49:16;;;;;;;2.33;1.67;;;;;;;;;;5057831;28;20212;-60
2023/08/15 11:51:42;;;;;;;6.15;2.05;;;;;;;;;;5057753;28;20463;-60
2023/08/15 11:54:10;;;;;;;2.10;1.88;;;;;;;;;;5057837;28;20208;-60
2023/08/15 11:56:47;;;;;;;2.75;2.38;;;;;;;;;;5057281;28;20412;-59
2023/08/15 11:59:15;;;;;;;2.20;1.95;;;;;;;;;;5047719;28;20221;-59
2023/08/15 12:01:42;;;;;;;2.03;1.90;;;;;;;;;;5045787;28;20406;-59
2023/08/15 12:04:09;;;;;;;2.60;2.00;;;;;;;;;;5043451;28;20460;-59
2023/08/15 12:06:36;;;;;;;3.55;2.05;;;;;;;;;;5057329;28;20216;-60
2023/08/15 12:09:03;;;;;;;3.85;2.08;;;;;;;;;;5057468;28;20220;-59
2023/08/15 12:11:33;;;;;;;3.70;2.30;;;;;;;;;;5057362;28;20250;-59
2023/08/15 12:14:00;;;;;;;3.90;1.85;;;;;;;;;;5057529;28;20200;-60
2023/08/15 12:16:26;;;;;;;4.65;2.00;;;;;;;;;;5057135;28;20279;-59
2023/08/15 12:18:52;;;;;;;2.47;2.20;;;;;;;;;;5057761;28;20212;-59
2023/08/15 12:21:19;;;;;;;2.55;1.92;;;;;;;;;;5057410;28;20236;-59
2023/08/15 12:23:45;;;;;;;4.38;2.13;;;;;;;;;;5057075;28;20292;-59
2023/08/15 12:26:11;;;;;;;3.40;2.28;;;;;;;;;;5057103;28;20494;-60
2023/08/15 12:28:39;;;;;;;3.70;2.00;;;;;;;;;;5056948;28;20228;-60
2023/08/15 12:31:05;;;;;;;4.60;2.13;;;;;;;;;;5057180;28;20279;-59
2023/08/15 12:33:33;;;;;;;5.00;1.98;;;;;;;;;;5056378;28;20489;-60
2023/08/15 12:36:00;;;;;;;6.63;2.00;;;;;;;;;;5056624;28;20212;-59
2023/08/15 12:38:26;;;;;;;3.03;2.10;;;;;;;;;;5057102;28;20396;-58
2023/08/15 12:40:52;;;;;;;6.22;2.67;;;;;;;;;;5056986;28;20209;-59
2023/08/15 12:43:18;;;;;;;3.58;2.45;;;;;;;;;;5057436;28;20212;-60
2023/08/15 12:45:46;;;;;;;7.82;2.55;;;;;;;;;;5056802;28;20586;-60
2023/08/15 12:48:12;;;;;;;5.50;2.50;;;;;;;;;;5056896;28;20220;-59
2023/08/15 12:50:40;;;;;;;8.32;2.33;;;;;;;;;;5056704;28;20213;-59
2023/08/15 12:53:08;;;;;;;4.70;2.38;;;;;;;;;;5057005;28;20220;-58
2023/08/15 12:55:34;;;;;;;5.60;2.88;;;;;;;;;;5056452;28;20212;-60
2023/08/15 12:58:02;;;;;;;6.45;3.10;;;;;;;;;;5056999;28;20212;-58
2023/08/15 13:00:29;;;;;;;9.48;3.10;;;;;;;;;;5056731;28;20408;-60
2023/08/15 13:02:56;;;;;;;5.40;3.08;;;;;;;;;;5056729;28;20216;-59
2023/08/15 13:05:23;;;;;;;5.07;3.35;;;;;;;;;;5056334;28;20228;-59
2023/08/15 13:07:50;;;;;;;5.85;3.30;;;;;;;;;;5056615;28;20219;-59
2023/08/15 13:10:17;;;;;;;6.43;3.28;;;;;;;;;;5056728;28;20254;-59
2023/08/15 13:12:43;;;;;;;6.65;3.25;;;;;;;;;;5056604;28;20299;-59
2023/08/15 13:15:11;;;;;;;6.65;3.42;;;;;;;;;;5056483;28;20428;-59
2023/08/15 13:17:37;;;;;;;5.07;3.53;;;;;;;;;;5056115;28;20275;-60
2023/08/15 13:20:05;;;;;;;5.28;3.20;;;;;;;;;;5056188;28;20218;-60
2023/08/15 13:22:32;;;;;;;3.53;3.22;;;;;;;;;;5051789;28;20211;-60
2023/08/15 13:24:58;;;;;;;5.82;3.13;;;;;;;;;;5056409;28;20881;-60
2023/08/15 13:27:24;;;;;;;5.20;3.05;;;;;;;;;;5055849;28;20259;-59
2023/08/15 13:29:50;;;;;;;4.70;3.20;;;;;;;;;;5057170;28;20212;-60
2023/08/15 13:32:17;;;;;;;9.15;3.50;;;;;;;;;;5061234;28;20527;-59
2023/08/15 13:34:43;;;;;;;8.07;3.38;;;;;;;;;;5061389;28;20197;-60
2023/08/15 13:37:11;;;;;;;7.50;3.60;;;;;;;;;;5060594;28;20444;-68
2023/08/15 13:39:37;;;;;;;11.10;3.88;;;;;;;;;;5061188;28;20504;-68
2023/08/15 13:42:03;;;;;;;5.03;3.42;;;;;;;;;;5061346;28;20201;-68
2023/08/15 13:44:30;;;;;;;6.93;2.80;;;;;;;;;;5061403;28;20213;-68
2023/08/15 13:46:56;;;;;;;5.82;3.00;;;;;;;;;;5064862;28;20554;-68
2023/08/15 13:49:22;;;;;;;6.40;3.13;;;;;;;;;;5065409;28;20208;-68
2023/08/15 13:51:49;;;;;;;4.07;3.15;;;;;;;;;;5065219;28;20231;-68
2023/08/15 13:54:16;;;;;;;6.03;3.20;;;;;;;;;;5065198;28;20197;-68
2023/08/15 13:56:42;;;;;;;5.72;2.95;;;;;;;;;;5064892;28;20207;-68
2023/08/15 13:59:09;;;;;;;4.47;2.60;;;;;;;;;;5064470;28;20197;-68
2023/08/15 14:01:35;;;;;;;4.65;2.80;;;;;;;;;;5064990;28;20212;-68
2023/08/15 14:04:01;;;;;;;4.40;2.88;;;;;;;;;;5065134;28;20416;-68
2023/08/15 14:06:28;;;;;;;4.55;2.55;;;;;;;;;;5064956;28;20524;-68
2023/08/15 14:08:54;;;;;;;3.30;2.92;;;;;;;;;;5064727;28;20209;-68
2023/08/15 14:11:22;;;;;;;5.65;3.10;;;;;;;;;;5064744;28;20197;-68
2023/08/15 14:13:48;;;;;;;4.03;2.83;;;;;;;;;;5064673;28;20205;-68
2023/08/15 14:16:15;;;;;;;4.30;3.00;;;;;;;;;;5064537;28;20275;-68
2023/08/15 14:18:41;;;;;;;9.60;2.60;;;;;;;;;;5064791;28;20196;-68
2023/08/15 14:21:09;;;;;;;4.32;3.00;;;;;;;;;;5064766;28;20393;-68
2023/08/15 14:23:35;;;;;;;3.65;2.75;;;;;;;;;;5064561;28;20197;-68
2023/08/15 14:26:01;;;;;;;4.97;3.08;;;;;;;;;;5056381;28;20196;-68
2023/08/15 14:28:29;;;;;;;3.10;2.80;;;;;;;;;;5064359;28;20284;-68
2023/08/15 14:30:57;;;;;;;6.35;2.85;;;;;;;;;;5064625;28;20200;-68
2023/08/15 14:33:26;;;;;;;4.82;3.08;;;;;;;;;;5064413;28;20197;-68
2023/08/15 14:35:52;;;;;;;4.40;3.45;;;;;;;;;;5064170;28;20393;-68
2023/08/15 14:38:18;;;;;;;6.35;3.05;;;;;;;;;;5064355;28;20223;-68